sensor_id;sensor_type;location;lat;lon;timestamp;pressure;altitude;pressure_sealevel;temperature;humidity
71770;BME280;59605;52.122;5.420;2022-08-25T00:02:05;101857.81;;;23.95;67.63
71770;BME280;59605;52.122;5.420;2022-08-25T00:04:34;101856.00;;;23.95;67.50
71770;BME280;59605;52.122;5.420;2022-08-25T00:07:03;101853.50;;;23.94;67.42
71770;BME280;59605;52.122;5.420;2022-08-25T00:09:32;101849.06;;;23.94;67.43
71770;BME280;59605;52.122;5.420;2022-08-25T00:11:59;101852.56;;;23.95;67.48
71770;BME280;59605;52.122;5.420;2022-08-25T00:14:30;101854.31;;;23.94;67.55
71770;BME280;59605;52.122;5.420;2022-08-25T00:16:56;101851.69;;;23.94;67.51
71770;BME280;59605;52.122;5.420;2022-08-25T00:19:26;101844.78;;;23.93;67.72
71770;BME280;59605;52.122;5.420;2022-08-25T00:21:54;101843.00;;;23.94;67.53
71770;BME280;59605;52.122;5.420;2022-08-25T00:24:22;101848.25;;;23.94;67.80
71770;BME280;59605;52.122;5.420;2022-08-25T00:26:51;101836.06;;;23.93;67.66
71770;BME280;59605;52.122;5.420;2022-08-25T00:29:21;101839.50;;;23.93;67.73
71770;BME280;59605;52.122;5.420;2022-08-25T00:31:48;101836.06;;;23.93;67.42
71770;BME280;59605;52.122;5.420;2022-08-25T00:34:18;101842.16;;;23.93;67.63
71770;BME280;59605;52.122;5.420;2022-08-25T00:36:45;101834.25;;;23.93;67.55
71770;BME280;59605;52.122;5.420;2022-08-25T00:39:12;101835.25;;;23.92;67.46
71770;BME280;59605;52.122;5.420;2022-08-25T00:41:41;101839.63;;;23.92;67.68
71770;BME280;59605;52.122;5.420;2022-08-25T00:44:13;101844.06;;;23.91;67.72
71770;BME280;59605;52.122;5.420;2022-08-25T00:46:45;101837.00;;;23.92;67.61
71770;BME280;59605;52.122;5.420;2022-08-25T00:49:16;101836.19;;;23.91;67.60
71770;BME280;59605;52.122;5.420;2022-08-25T00:52:06;101838.81;;;23.91;67.57
71770;BME280;59605;52.122;5.420;2022-08-25T00:54:40;101830.94;;;23.91;67.44
71770;BME280;59605;52.122;5.420;2022-08-25T00:57:10;101838.81;;;23.91;67.41
71770;BME280;59605;52.122;5.420;2022-08-25T00:59:38;101838.81;;;23.91;67.55
71770;BME280;59605;52.122;5.420;2022-08-25T01:02:06;101833.69;;;23.90;67.39
71770;BME280;59605;52.122;5.420;2022-08-25T01:04:39;101835.38;;;23.91;67.27
71770;BME280;59605;52.122;5.420;2022-08-25T01:07:16;101829.25;;;23.90;67.28
71770;BME280;59605;52.122;5.420;2022-08-25T01:09:45;101839.75;;;23.90;67.30
71770;BME280;59605;52.122;5.420;2022-08-25T01:12:12;101837.13;;;23.90;67.35
71770;BME280;59605;52.122;5.420;2022-08-25T01:14:38;101828.44;;;23.90;67.17
71770;BME280;59605;52.122;5.420;2022-08-25T01:17:05;101828.56;;;23.88;67.36
71770;BME280;59605;52.122;5.420;2022-08-25T01:19:31;101824.13;;;23.88;67.51
71770;BME280;59605;52.122;5.420;2022-08-25T01:21:59;101826.75;;;23.88;67.15
71770;BME280;59605;52.122;5.420;2022-08-25T01:24:41;101818.88;;;23.88;67.23
71770;BME280;59605;52.122;5.420;2022-08-25T01:27:10;101817.22;;;23.87;67.31
71770;BME280;59605;52.122;5.420;2022-08-25T01:29:37;101815.44;;;23.88;67.17
71770;BME280;59605;52.122;5.420;2022-08-25T01:32:08;101822.47;;;23.87;67.30
71770;BME280;59605;52.122;5.420;2022-08-25T01:34:38;101820.81;;;23.86;67.17
71770;BME280;59605;52.122;5.420;2022-08-25T01:37:06;101819.00;;;23.87;66.91
71770;BME280;59605;52.122;5.420;2022-08-25T01:39:37;101824.25;;;23.87;67.03
71770;BME280;59605;52.122;5.420;2022-08-25T01:44:38;101825.22;;;23.86;67.03
71770;BME280;59605;52.122;5.420;2022-08-25T01:47:05;101828.69;;;23.86;66.77
71770;BME280;59605;52.122;5.420;2022-08-25T01:49:32;101821.72;;;23.85;67.21
71770;BME280;59605;52.122;5.420;2022-08-25T01:54:36;101808.59;;;23.85;66.87
71770;BME280;59605;52.122;5.420;2022-08-25T01:57:02;101809.47;;;23.86;66.94
71770;BME280;59605;52.122;5.420;2022-08-25T01:59:29;101814.78;;;23.84;66.72
71770;BME280;59605;52.122;5.420;2022-08-25T02:01:55;101820.03;;;23.84;66.96
71770;BME280;59605;52.122;5.420;2022-08-25T02:04:25;101818.25;;;23.85;66.92
71770;BME280;59605;52.122;5.420;2022-08-25T02:06:52;101814.72;;;23.86;66.78
71770;BME280;59605;52.122;5.420;2022-08-25T02:09:18;101816.47;;;23.85;67.02
71770;BME280;59605;52.122;5.420;2022-08-25T02:11:45;101818.16;;;23.86;66.99
71770;BME280;59605;52.122;5.420;2022-08-25T02:14:14;101812.09;;;23.86;66.85
71770;BME280;59605;52.122;5.420;2022-08-25T02:16:44;101809.47;;;23.86;66.93
71770;BME280;59605;52.122;5.420;2022-08-25T02:19:11;101806.84;;;23.86;66.96
71770;BME280;59605;52.122;5.420;2022-08-25T02:21:38;101812.09;;;23.86;66.88
71770;BME280;59605;52.122;5.420;2022-08-25T02:24:05;101807.75;;;23.85;66.91
71770;BME280;59605;52.122;5.420;2022-08-25T02:26:32;101815.53;;;23.86;66.75
71770;BME280;59605;52.122;5.420;2022-08-25T02:28:59;101816.47;;;23.85;66.95
71770;BME280;59605;52.122;5.420;2022-08-25T02:31:26;101810.38;;;23.85;67.00
71770;BME280;59605;52.122;5.420;2022-08-25T02:33:52;101812.09;;;23.86;66.56
71770;BME280;59605;52.122;5.420;2022-08-25T02:36:20;101819.00;;;23.87;66.95
71770;BME280;59605;52.122;5.420;2022-08-25T02:38:47;101809.47;;;23.86;66.78
71770;BME280;59605;52.122;5.420;2022-08-25T02:41:20;101802.50;;;23.85;66.61
71770;BME280;59605;52.122;5.420;2022-08-25T02:43:50;101805.13;;;23.85;67.01
71770;BME280;59605;52.122;5.420;2022-08-25T02:46:19;101798.97;;;23.86;66.75
71770;BME280;59605;52.122;5.420;2022-08-25T02:48:47;101805.13;;;23.85;66.82
71770;BME280;59605;52.122;5.420;2022-08-25T02:51:14;101792.84;;;23.85;66.83
71770;BME280;59605;52.122;5.420;2022-08-25T02:53:41;101795.47;;;23.85;66.84
71770;BME280;59605;52.122;5.420;2022-08-25T02:56:12;101805.03;;;23.86;66.58
71770;BME280;59605;52.122;5.420;2022-08-25T02:58:40;101796.34;;;23.86;66.87
71770;BME280;59605;52.122;5.420;2022-08-25T03:01:07;101784.25;;;23.83;66.67
71770;BME280;59605;52.122;5.420;2022-08-25T03:03:41;101791.09;;;23.86;66.65
71770;BME280;59605;52.122;5.420;2022-08-25T03:06:15;101786.66;;;23.86;66.45
71770;BME280;59605;52.122;5.420;2022-08-25T03:08:43;101798.00;;;23.87;66.46
71770;BME280;59605;52.122;5.420;2022-08-25T03:11:10;101786.66;;;23.86;66.67
71770;BME280;59605;52.122;5.420;2022-08-25T03:13:37;101785.84;;;23.86;66.53
71770;BME280;59605;52.122;5.420;2022-08-25T03:16:04;101765.03;;;23.83;66.54
71770;BME280;59605;52.122;5.420;2022-08-25T03:18:38;101769.22;;;23.85;66.62
71770;BME280;59605;52.122;5.420;2022-08-25T03:21:05;101770.16;;;23.84;66.61
71770;BME280;59605;52.122;5.420;2022-08-25T03:23:32;101772.78;;;23.84;66.24
71770;BME280;59605;52.122;5.420;2022-08-25T03:25:59;101770.16;;;23.84;66.49
71770;BME280;59605;52.122;5.420;2022-08-25T03:28:44;101771.00;;;23.85;66.53
71770;BME280;59605;52.122;5.420;2022-08-25T03:31:10;101767.47;;;23.86;66.29
71770;BME280;59605;52.122;5.420;2022-08-25T03:33:37;101765.75;;;23.85;66.23
71770;BME280;59605;52.122;5.420;2022-08-25T03:36:05;101764.06;;;23.84;66.37
71770;BME280;59605;52.122;5.420;2022-08-25T03:38:31;101765.88;;;23.83;65.64
71770;BME280;59605;52.122;5.420;2022-08-25T03:40:58;101761.56;;;23.82;64.79
71770;BME280;59605;52.122;5.420;2022-08-25T03:43:24;101761.13;;;23.77;64.68
71770;BME280;59605;52.122;5.420;2022-08-25T03:45:51;101754.31;;;23.75;64.20
71770;BME280;59605;52.122;5.420;2022-08-25T03:48:17;101760.63;;;23.72;63.96
71770;BME280;59605;52.122;5.420;2022-08-25T03:50:47;101747.75;;;23.69;63.79
71770;BME280;59605;52.122;5.420;2022-08-25T03:53:18;101753.25;;;23.66;63.63
71770;BME280;59605;52.122;5.420;2022-08-25T03:55:44;101749.88;;;23.64;63.22
71770;BME280;59605;52.122;5.420;2022-08-25T03:58:11;101750.97;;;23.61;63.48
71770;BME280;59605;52.122;5.420;2022-08-25T04:00:37;101752.03;;;23.59;63.38
71770;BME280;59605;52.122;5.420;2022-08-25T04:03:04;101748.69;;;23.57;62.95
71770;BME280;59605;52.122;5.420;2022-08-25T04:05:31;101740.22;;;23.53;62.79
71770;BME280;59605;52.122;5.420;2022-08-25T04:07:58;101736.06;;;23.50;62.90
71770;BME280;59605;52.122;5.420;2022-08-25T04:10:27;101743.22;;;23.48;62.69
71770;BME280;59605;52.122;5.420;2022-08-25T04:12:53;101740.72;;;23.47;62.75
71770;BME280;59605;52.122;5.420;2022-08-25T04:15:21;101739.16;;;23.44;62.64
71770;BME280;59605;52.122;5.420;2022-08-25T04:17:47;101738.34;;;23.44;62.37
71770;BME280;59605;52.122;5.420;2022-08-25T04:20:17;101736.66;;;23.43;62.56
71770;BME280;59605;52.122;5.420;2022-08-25T04:22:44;101736.78;;;23.41;62.11
71770;BME280;59605;52.122;5.420;2022-08-25T04:25:11;101724.72;;;23.39;62.32
71770;BME280;59605;52.122;5.420;2022-08-25T04:27:37;101731.88;;;23.37;62.03
71770;BME280;59605;52.122;5.420;2022-08-25T04:30:05;101732.00;;;23.35;62.00
71770;BME280;59605;52.122;5.420;2022-08-25T04:32:31;101726.75;;;23.35;62.21
71770;BME280;59605;52.122;5.420;2022-08-25T04:34:58;101725.91;;;23.34;62.09
71770;BME280;59605;52.122;5.420;2022-08-25T04:37:25;101729.38;;;23.35;61.92
71770;BME280;59605;52.122;5.420;2022-08-25T04:39:51;101723.41;;;23.33;61.82
71770;BME280;59605;52.122;5.420;2022-08-25T04:42:17;101718.16;;;23.33;61.84
71770;BME280;59605;52.122;5.420;2022-08-25T04:44:44;101724.38;;;23.32;62.06
71770;BME280;59605;52.122;5.420;2022-08-25T04:47:10;101721.75;;;23.32;61.58
71770;BME280;59605;52.122;5.420;2022-08-25T04:49:37;101719.22;;;23.30;61.79
71770;BME280;59605;52.122;5.420;2022-08-25T04:52:03;101733.31;;;23.29;61.62
71770;BME280;59605;52.122;5.420;2022-08-25T04:54:38;101729.00;;;23.28;61.87
71770;BME280;59605;52.122;5.420;2022-08-25T04:57:04;101733.56;;;23.26;61.72
71770;BME280;59605;52.122;5.420;2022-08-25T04:59:31;101730.19;;;23.24;61.77
71770;BME280;59605;52.122;5.420;2022-08-25T05:01:59;101725.94;;;23.23;61.98
71770;BME280;59605;52.122;5.420;2022-08-25T05:04:29;101732.94;;;23.23;62.12
71770;BME280;59605;52.122;5.420;2022-08-25T05:06:56;101728.63;;;23.22;61.78
71770;BME280;59605;52.122;5.420;2022-08-25T05:09:24;101724.47;;;23.19;62.16
71770;BME280;59605;52.122;5.420;2022-08-25T05:11:51;101737.59;;;23.19;62.06
71770;BME280;59605;52.122;5.420;2022-08-25T05:14:19;101724.47;;;23.19;61.58
71770;BME280;59605;52.122;5.420;2022-08-25T05:16:53;101724.47;;;23.19;61.59
71770;BME280;59605;52.122;5.420;2022-08-25T05:19:19;101729.63;;;23.21;61.02
71770;BME280;59605;52.122;5.420;2022-08-25T05:21:46;101733.06;;;23.21;61.00
71770;BME280;59605;52.122;5.420;2022-08-25T05:24:13;101733.06;;;23.21;60.75
71770;BME280;59605;52.122;5.420;2022-08-25T05:26:39;101737.34;;;23.22;60.88
71770;BME280;59605;52.122;5.420;2022-08-25T05:29:06;101734.75;;;23.22;60.96
71770;BME280;59605;52.122;5.420;2022-08-25T05:31:32;101736.41;;;23.23;60.55
71770;BME280;59605;52.122;5.420;2022-08-25T05:34:05;101742.47;;;23.24;60.36
71770;BME280;59605;52.122;5.420;2022-08-25T05:36:32;101743.31;;;23.24;60.16
71770;BME280;59605;52.122;5.420;2022-08-25T05:38:59;101749.41;;;23.25;60.46
71770;BME280;59605;52.122;5.420;2022-08-25T05:41:28;101752.03;;;23.25;60.50
71770;BME280;59605;52.122;5.420;2022-08-25T05:43:55;101756.31;;;23.26;60.51
71770;BME280;59605;52.122;5.420;2022-08-25T05:46:22;101755.47;;;23.25;60.58
71770;BME280;59605;52.122;5.420;2022-08-25T05:48:49;101751.06;;;23.26;60.52
71770;BME280;59605;52.122;5.420;2022-08-25T05:51:17;101758.09;;;23.25;60.68
71770;BME280;59605;52.122;5.420;2022-08-25T05:53:46;101759.78;;;23.26;60.82
71770;BME280;59605;52.122;5.420;2022-08-25T05:56:13;101752.75;;;23.27;60.33
71770;BME280;59605;52.122;5.420;2022-08-25T05:58:40;101750.94;;;23.27;60.05
71770;BME280;59605;52.122;5.420;2022-08-25T06:01:08;101743.19;;;23.26;60.16
71770;BME280;59605;52.122;5.420;2022-08-25T06:03:56;101749.28;;;23.26;60.17
71770;BME280;59605;52.122;5.420;2022-08-25T06:06:23;101758.94;;;23.26;59.91
71770;BME280;59605;52.122;5.420;2022-08-25T06:08:49;101750.13;;;23.27;59.74
71770;BME280;59605;52.122;5.420;2022-08-25T06:11:16;101756.19;;;23.27;59.75
71770;BME280;59605;52.122;5.420;2022-08-25T06:13:43;101754.41;;;23.28;59.62
71770;BME280;59605;52.122;5.420;2022-08-25T06:16:09;101763.13;;;23.28;59.47
71770;BME280;59605;52.122;5.420;2022-08-25T06:18:35;101763.13;;;23.28;59.92
71770;BME280;59605;52.122;5.420;2022-08-25T06:21:13;101763.00;;;23.30;59.81
71770;BME280;59605;52.122;5.420;2022-08-25T06:23:40;101769.81;;;23.32;59.96
71770;BME280;59605;52.122;5.420;2022-08-25T06:26:10;101763.72;;;23.32;60.19
71770;BME280;59605;52.122;5.420;2022-08-25T06:28:46;101766.13;;;23.35;59.90
71770;BME280;59605;52.122;5.420;2022-08-25T06:31:12;101762.88;;;23.31;60.34
71770;BME280;59605;52.122;5.420;2022-08-25T06:33:39;101774.44;;;23.29;61.55
71770;BME280;59605;52.122;5.420;2022-08-25T06:36:05;101772.03;;;23.26;60.99
71770;BME280;59605;52.122;5.420;2022-08-25T06:38:33;101773.13;;;23.23;61.34
71770;BME280;59605;52.122;5.420;2022-08-25T06:41:04;101778.38;;;23.23;61.38
71770;BME280;59605;52.122;5.420;2022-08-25T06:43:32;101764.28;;;23.24;60.96
71770;BME280;59605;52.122;5.420;2022-08-25T06:46:10;101772.03;;;23.26;61.48
71770;BME280;59605;52.122;5.420;2022-08-25T06:48:37;101760.59;;;23.27;62.18
71770;BME280;59605;52.122;5.420;2022-08-25T06:51:09;101767.53;;;23.28;62.00
71770;BME280;59605;52.122;5.420;2022-08-25T06:53:40;101752.75;;;23.27;61.49
71770;BME280;59605;52.122;5.420;2022-08-25T06:56:06;101757.03;;;23.28;61.30
71770;BME280;59605;52.122;5.420;2022-08-25T06:58:33;101757.03;;;23.28;61.30
71770;BME280;59605;52.122;5.420;2022-08-25T07:01:30;101758.69;;;23.29;61.37
71770;BME280;59605;52.122;5.420;2022-08-25T07:03:59;101763.00;;;23.30;61.34
71770;BME280;59605;52.122;5.420;2022-08-25T07:06:27;101750.69;;;23.30;61.78
71770;BME280;59605;52.122;5.420;2022-08-25T07:08:54;101748.81;;;23.32;61.76
71770;BME280;59605;52.122;5.420;2022-08-25T07:11:20;101757.50;;;23.33;62.23
71770;BME280;59605;52.122;5.420;2022-08-25T07:13:48;101756.44;;;23.35;62.07
71770;BME280;59605;52.122;5.420;2022-08-25T07:16:17;101752.03;;;23.36;62.44
71770;BME280;59605;52.122;5.420;2022-08-25T07:18:46;101766.69;;;23.39;61.86
71770;BME280;59605;52.122;5.420;2022-08-25T07:21:13;101757.88;;;23.40;62.13
71770;BME280;59605;52.122;5.420;2022-08-25T07:23:40;101760.38;;;23.41;62.52
71770;BME280;59605;52.122;5.420;2022-08-25T07:26:13;101763.72;;;23.43;62.52
71770;BME280;59605;52.122;5.420;2022-08-25T07:29:01;101766.09;;;23.46;62.58
71770;BME280;59605;52.122;5.420;2022-08-25T07:31:28;101765.16;;;23.47;62.36
71770;BME280;59605;52.122;5.420;2022-08-25T07:33:55;101763.25;;;23.49;62.42
71770;BME280;59605;52.122;5.420;2022-08-25T07:36:42;101758.72;;;23.51;62.59
71770;BME280;59605;52.122;5.420;2022-08-25T07:39:08;101757.78;;;23.52;62.52
71770;BME280;59605;52.122;5.420;2022-08-25T07:41:37;101761.94;;;23.55;62.69
71770;BME280;59605;52.122;5.420;2022-08-25T07:44:05;101759.31;;;23.55;62.81
71770;BME280;59605;52.122;5.420;2022-08-25T07:46:32;101761.81;;;23.57;62.95
71770;BME280;59605;52.122;5.420;2022-08-25T07:48:59;101766.22;;;23.56;62.87
71770;BME280;59605;52.122;5.420;2022-08-25T07:51:25;101760.88;;;23.58;62.84
71770;BME280;59605;52.122;5.420;2022-08-25T07:53:52;101746.91;;;23.57;62.64
71770;BME280;59605;52.122;5.420;2022-08-25T07:56:19;101752.88;;;23.59;63.01
71770;BME280;59605;52.122;5.420;2022-08-25T07:58:46;101750.25;;;23.59;63.05
71770;BME280;59605;52.122;5.420;2022-08-25T08:01:21;101751.81;;;23.62;63.38
71770;BME280;59605;52.122;5.420;2022-08-25T08:03:49;101751.81;;;23.62;63.14
71770;BME280;59605;52.122;5.420;2022-08-25T08:06:19;101752.63;;;23.62;63.24
71770;BME280;59605;52.122;5.420;2022-08-25T08:08:48;101750.84;;;23.63;63.15
71770;BME280;59605;52.122;5.420;2022-08-25T08:11:22;101748.22;;;23.63;63.48
71770;BME280;59605;52.122;5.420;2022-08-25T08:13:49;101742.00;;;23.64;63.74
71770;BME280;59605;52.122;5.420;2022-08-25T08:16:18;101743.69;;;23.65;63.76
71770;BME280;59605;52.122;5.420;2022-08-25T08:18:45;101741.88;;;23.65;63.60
71770;BME280;59605;52.122;5.420;2022-08-25T08:21:23;101736.63;;;23.65;63.79
71770;BME280;59605;52.122;5.420;2022-08-25T08:23:50;101735.69;;;23.66;63.64
71770;BME280;59605;52.122;5.420;2022-08-25T08:26:24;101735.56;;;23.68;63.71
71770;BME280;59605;52.122;5.420;2022-08-25T08:29:07;101747.75;;;23.69;63.83
71770;BME280;59605;52.122;5.420;2022-08-25T08:31:35;101744.31;;;23.68;64.11
71770;BME280;59605;52.122;5.420;2022-08-25T08:34:01;101734.50;;;23.70;64.16
71770;BME280;59605;52.122;5.420;2022-08-25T08:36:28;101736.19;;;23.72;64.08
71770;BME280;59605;52.122;5.420;2022-08-25T08:38:55;101730.81;;;23.73;64.10
71770;BME280;59605;52.122;5.420;2022-08-25T08:50:27;101730.69;;;23.75;64.36
71770;BME280;59605;52.122;5.420;2022-08-25T08:56:04;101722.69;;;23.76;64.30
71770;BME280;59605;52.122;5.420;2022-08-25T08:58:39;101720.06;;;23.76;64.38
71770;BME280;59605;52.122;5.420;2022-08-25T09:01:09;101720.88;;;23.77;64.45
71770;BME280;59605;52.122;5.420;2022-08-25T09:03:41;101714.81;;;23.76;64.69
71770;BME280;59605;52.122;5.420;2022-08-25T09:06:12;101718.13;;;23.78;64.56
71770;BME280;59605;52.122;5.420;2022-08-25T09:08:43;101712.75;;;23.80;64.42
71770;BME280;59605;52.122;5.420;2022-08-25T09:11:29;101727.56;;;23.81;64.77
71770;BME280;59605;52.122;5.420;2022-08-25T09:17:04;101717.78;;;23.83;64.73
71770;BME280;59605;52.122;5.420;2022-08-25T09:19:59;101717.91;;;23.81;64.85
71770;BME280;59605;52.122;5.420;2022-08-25T09:22:57;101718.75;;;23.82;64.90
71770;BME280;59605;52.122;5.420;2022-08-25T09:25:44;101718.75;;;23.82;65.04
71770;BME280;59605;52.122;5.420;2022-08-25T09:28:38;101718.75;;;23.82;65.16
71770;BME280;59605;52.122;5.420;2022-08-25T09:31:20;101716.13;;;23.82;65.26
71770;BME280;59605;52.122;5.420;2022-08-25T09:33:55;101720.28;;;23.84;65.14
71770;BME280;59605;52.122;5.420;2022-08-25T09:36:23;101718.50;;;23.85;65.04
71770;BME280;59605;52.122;5.420;2022-08-25T09:38:50;101723.75;;;23.85;65.13
71770;BME280;59605;52.122;5.420;2022-08-25T09:44:24;101707.09;;;23.86;64.92
71770;BME280;59605;52.122;5.420;2022-08-25T09:47:21;101712.22;;;23.87;65.25
71770;BME280;59605;52.122;5.420;2022-08-25T09:49:50;101710.28;;;23.90;65.23
71770;BME280;59605;52.122;5.420;2022-08-25T09:52:27;101707.66;;;23.90;65.36
71770;BME280;59605;52.122;5.420;2022-08-25T09:55:30;101698.84;;;23.91;65.34
71770;BME280;59605;52.122;5.420;2022-08-25T09:57:59;101700.47;;;23.92;65.26
71770;BME280;59605;52.122;5.420;2022-08-25T10:00:30;101695.34;;;23.90;65.37
71770;BME280;59605;52.122;5.420;2022-08-25T10:03:18;101695.22;;;23.92;65.47
71770;BME280;59605;52.122;5.420;2022-08-25T10:06:11;101688.22;;;23.92;65.36
71770;BME280;59605;52.122;5.420;2022-08-25T10:08:53;101687.34;;;23.92;65.28
71770;BME280;59605;52.122;5.420;2022-08-25T10:11:44;101682.97;;;23.92;65.43
71770;BME280;59605;52.122;5.420;2022-08-25T10:14:20;101681.97;;;23.93;65.29
71770;BME280;59605;52.122;5.420;2022-08-25T10:16:51;101678.53;;;23.93;65.22
71770;BME280;59605;52.122;5.420;2022-08-25T10:19:27;101680.19;;;23.94;65.21
71770;BME280;59605;52.122;5.420;2022-08-25T10:24:33;101670.66;;;23.93;65.12
71770;BME280;59605;52.122;5.420;2022-08-25T10:32:36;101656.56;;;23.94;65.35
71770;BME280;59605;52.122;5.420;2022-08-25T10:35:11;101652.16;;;23.94;65.56
71770;BME280;59605;52.122;5.420;2022-08-25T10:38:04;101647.75;;;23.95;65.34
71770;BME280;59605;52.122;5.420;2022-08-25T10:40:41;101645.94;;;23.95;65.61
71770;BME280;59605;52.122;5.420;2022-08-25T10:43:32;101642.38;;;23.96;65.21
71770;BME280;59605;52.122;5.420;2022-08-25T10:46:06;101644.00;;;23.97;65.45
71770;BME280;59605;52.122;5.420;2022-08-25T10:51:21;101626.50;;;23.98;65.62
71770;BME280;59605;52.122;5.420;2022-08-25T10:59:01;101608.94;;;23.98;65.74
71770;BME280;59605;52.122;5.420;2022-08-25T11:04:24;101614.75;;;24.02;65.71
71770;BME280;59605;52.122;5.420;2022-08-25T11:07:07;101609.50;;;24.02;65.40
71770;BME280;59605;52.122;5.420;2022-08-25T11:09:39;101606.06;;;24.01;65.47
71770;BME280;59605;52.122;5.420;2022-08-25T11:12:14;101609.63;;;24.00;65.72
71770;BME280;59605;52.122;5.420;2022-08-25T11:14:48;101600.09;;;23.99;65.57
71770;BME280;59605;52.122;5.420;2022-08-25T11:17:20;101603.56;;;24.00;65.49
71770;BME280;59605;52.122;5.420;2022-08-25T11:19:52;101599.13;;;24.00;65.55
71770;BME280;59605;52.122;5.420;2022-08-25T11:22:25;101602.72;;;23.99;65.50
71770;BME280;59605;52.122;5.420;2022-08-25T11:25:06;101600.09;;;23.99;65.51
71770;BME280;59605;52.122;5.420;2022-08-25T11:30:15;101593.88;;;24.00;65.54
71770;BME280;59605;52.122;5.420;2022-08-25T11:32:48;101592.91;;;24.01;65.49
71770;BME280;59605;52.122;5.420;2022-08-25T11:35:19;101584.22;;;24.01;65.22
71770;BME280;59605;52.122;5.420;2022-08-25T11:46:21;101575.25;;;24.03;65.02
71770;BME280;59605;52.122;5.420;2022-08-25T11:49:02;101581.34;;;24.04;65.22
71770;BME280;59605;52.122;5.420;2022-08-25T11:51:40;101574.28;;;24.04;65.40
71770;BME280;59605;52.122;5.420;2022-08-25T11:54:33;101576.91;;;24.04;65.09
71770;BME280;59605;52.122;5.420;2022-08-25T11:57:03;101572.50;;;24.05;65.14
71770;BME280;59605;52.122;5.420;2022-08-25T12:02:38;101578.59;;;24.05;65.04
71770;BME280;59605;52.122;5.420;2022-08-25T12:06:13;101577.75;;;24.05;65.05
71770;BME280;59605;52.122;5.420;2022-08-25T12:07:59;101573.34;;;24.05;64.66
71770;BME280;59605;52.122;5.420;2022-08-25T12:11:03;101567.25;;;24.05;65.02
71770;BME280;59605;52.122;5.420;2022-08-25T12:19:50;101573.34;;;24.05;64.82
71770;BME280;59605;52.122;5.420;2022-08-25T12:30:04;101575.97;;;24.05;64.50
71770;BME280;59605;52.122;5.420;2022-08-25T12:35:50;101572.50;;;24.05;64.55
71770;BME280;59605;52.122;5.420;2022-08-25T12:40:59;101554.00;;;24.07;64.67
71770;BME280;59605;52.122;5.420;2022-08-25T12:43:48;101556.63;;;24.07;64.53
71770;BME280;59605;52.122;5.420;2022-08-25T12:54:21;101555.50;;;24.09;64.50
71770;BME280;59605;52.122;5.420;2022-08-25T12:56:55;101552.88;;;24.09;64.22
71770;BME280;59605;52.122;5.420;2022-08-25T12:59:34;101549.31;;;24.10;64.11
71770;BME280;59605;52.122;5.420;2022-08-25T13:02:39;101550.00;;;24.12;64.09
71770;BME280;59605;52.122;5.420;2022-08-25T13:08:22;101553.59;;;24.11;64.19
71770;BME280;59605;52.122;5.420;2022-08-25T13:11:08;101547.50;;;24.11;63.82
71770;BME280;59605;52.122;5.420;2022-08-25T13:14:16;101546.56;;;24.12;64.10
71770;BME280;59605;52.122;5.420;2022-08-25T13:16:59;101540.34;;;24.13;64.35
71770;BME280;59605;52.122;5.420;2022-08-25T13:19:26;101539.50;;;24.12;64.13
71770;BME280;59605;52.122;5.420;2022-08-25T13:22:02;101538.53;;;24.13;64.09
71770;BME280;59605;52.122;5.420;2022-08-25T13:24:42;101532.34;;;24.14;63.96
71770;BME280;59605;52.122;5.420;2022-08-25T13:27:23;101529.59;;;24.16;64.38
71770;BME280;59605;52.122;5.420;2022-08-25T13:29:55;101527.91;;;24.15;64.48
71770;BME280;59605;52.122;5.420;2022-08-25T13:32:26;101525.28;;;24.15;64.08
71770;BME280;59605;52.122;5.420;2022-08-25T13:35:11;101521.84;;;24.14;64.43
71770;BME280;59605;52.122;5.420;2022-08-25T13:37:39;101516.44;;;24.16;64.44
71770;BME280;59605;52.122;5.420;2022-08-25T13:40:10;101519.19;;;24.14;64.38
71770;BME280;59605;52.122;5.420;2022-08-25T13:42:39;101513.00;;;24.15;64.18
71770;BME280;59605;52.122;5.420;2022-08-25T13:45:14;101513.81;;;24.16;64.26
71770;BME280;59605;52.122;5.420;2022-08-25T13:47:43;101513.00;;;24.15;64.07
71770;BME280;59605;52.122;5.420;2022-08-25T13:50:30;101519.91;;;24.16;64.25
71770;BME280;59605;52.122;5.420;2022-08-25T13:53:03;101510.38;;;24.15;63.99
71770;BME280;59605;52.122;5.420;2022-08-25T13:55:38;101504.13;;;24.16;63.91
71770;BME280;59605;52.122;5.420;2022-08-25T13:58:19;101510.25;;;24.17;63.97
71770;BME280;59605;52.122;5.420;2022-08-25T14:01:01;101502.38;;;24.17;64.33
71770;BME280;59605;52.122;5.420;2022-08-25T14:03:49;101505.81;;;24.17;64.18
71770;BME280;59605;52.122;5.420;2022-08-25T14:09:05;101486.34;;;24.20;64.38
71770;BME280;59605;52.122;5.420;2022-08-25T14:14:09;101488.13;;;24.19;64.36
71770;BME280;59605;52.122;5.420;2022-08-25T14:16:45;101487.28;;;24.19;64.03
71770;BME280;59605;52.122;5.420;2022-08-25T14:19:21;101489.91;;;24.19;64.06
71770;BME280;59605;52.122;5.420;2022-08-25T14:21:49;101492.53;;;24.19;63.90
71770;BME280;59605;52.122;5.420;2022-08-25T14:24:22;101489.91;;;24.19;63.96
71770;BME280;59605;52.122;5.420;2022-08-25T14:26:50;101486.47;;;24.18;64.50
71770;BME280;59605;52.122;5.420;2022-08-25T14:29:19;101483.84;;;24.18;64.28
71770;BME280;59605;52.122;5.420;2022-08-25T14:31:47;101484.66;;;24.19;63.42
71770;BME280;59605;52.122;5.420;2022-08-25T14:34:20;101488.13;;;24.19;64.56
71770;BME280;59605;52.122;5.420;2022-08-25T14:36:49;101485.34;;;24.21;64.56
71770;BME280;59605;52.122;5.420;2022-08-25T14:39:16;101481.78;;;24.22;64.56
71770;BME280;59605;52.122;5.420;2022-08-25T14:41:44;101474.84;;;24.21;64.48
71770;BME280;59605;52.122;5.420;2022-08-25T14:44:18;101479.16;;;24.22;64.63
71770;BME280;59605;52.122;5.420;2022-08-25T14:46:50;101479.88;;;24.24;64.54